createdAt,value
2018-07-24T00:00:37.430Z,58.48
2018-07-24T00:03:05.468Z,58.14
2018-07-24T00:05:33.491Z,58.36
2018-07-24T00:08:01.525Z,58.56
2018-07-24T00:10:29.556Z,58.19
2018-07-24T00:12:57.594Z,58.08
2018-07-24T00:15:25.619Z,59.46
2018-07-24T00:17:53.636Z,58.46
2018-07-24T00:20:21.676Z,58.75
2018-07-24T00:22:49.692Z,58.62
2018-07-24T00:25:17.711Z,58.49
2018-07-24T00:27:45.735Z,59.47
2018-07-24T00:30:13.775Z,59.45
2018-07-24T00:32:41.799Z,58.98
2018-07-24T00:35:09.838Z,59.46
2018-07-24T00:37:37.888Z,59.39
2018-07-24T00:40:05.937Z,59.18
2018-07-24T00:42:33.980Z,59.26
2018-07-24T00:45:02.181Z,59.78
2018-07-24T00:47:30.251Z,59.74
2018-07-24T00:49:58.290Z,59.37
2018-07-24T00:52:26.308Z,60.08
2018-07-24T00:54:54.345Z,59.25
2018-07-24T00:57:22.392Z,59.74
2018-07-24T00:59:50.419Z,59.38
2018-07-24T01:02:18.463Z,60.34
2018-07-24T01:04:46.504Z,60.76
2018-07-24T01:07:14.532Z,60.54
2018-07-24T01:09:42.567Z,60.71
2018-07-24T01:12:10.596Z,61.39
2018-07-24T01:14:38.644Z,60.75
2018-07-24T01:17:06.669Z,60.83
2018-07-24T01:19:34.685Z,61.42
2018-07-24T01:22:02.736Z,61.69
2018-07-24T01:24:30.803Z,60.89
2018-07-24T01:26:58.828Z,60.92
2018-07-24T01:29:26.860Z,61.21
2018-07-24T01:31:54.889Z,61.79
2018-07-24T01:34:22.935Z,61.10
2018-07-24T01:36:50.975Z,61.86
2018-07-24T01:39:19.009Z,62.12
2018-07-24T01:41:47.069Z,61.48
2018-07-24T01:44:15.253Z,62.53
2018-07-24T01:46:43.283Z,62.59
2018-07-24T01:49:11.304Z,62.05
2018-07-24T01:51:39.343Z,62.33
2018-07-24T01:54:07.363Z,62.44
2018-07-24T01:56:35.404Z,61.86
2018-07-24T01:59:03.696Z,61.92
2018-07-24T02:01:31.718Z,62.37
2018-07-24T02:03:59.734Z,62.41
2018-07-24T02:06:27.773Z,62.37
2018-07-24T02:08:55.792Z,61.87
2018-07-24T02:11:23.814Z,62.12
2018-07-24T02:13:51.868Z,62.45
2018-07-24T02:16:19.915Z,62.60
2018-07-24T02:18:47.960Z,62.98
2018-07-24T02:21:16.016Z,62.69
2018-07-24T02:23:44.018Z,62.18
2018-07-24T02:26:12.046Z,62.57
2018-07-24T02:28:40.069Z,62.48
2018-07-24T02:31:08.134Z,62.79
2018-07-24T02:33:36.161Z,62.79
2018-07-24T02:36:05.027Z,62.41
2018-07-24T02:38:33.060Z,62.00
2018-07-24T02:41:01.088Z,62.55
2018-07-24T02:43:29.120Z,62.61
2018-07-24T02:45:57.157Z,62.58
2018-07-24T02:48:25.184Z,63.30
2018-07-24T02:50:53.228Z,63.08
2018-07-24T02:53:21.259Z,62.32
2018-07-24T02:55:49.316Z,62.70
2018-07-24T02:58:17.353Z,63.14
2018-07-24T03:00:45.396Z,64.11
2018-07-24T03:03:13.597Z,63.43
2018-07-24T03:05:41.629Z,63.20
2018-07-24T03:08:09.669Z,63.40
2018-07-24T03:10:37.696Z,63.56
2018-07-24T03:13:05.759Z,63.07
2018-07-24T03:15:33.778Z,62.26
2018-07-24T03:18:01.814Z,62.01
2018-07-24T03:20:29.866Z,62.06
2018-07-24T03:22:57.897Z,62.67
2018-07-24T03:25:25.929Z,62.20
2018-07-24T03:27:53.981Z,62.64
2018-07-24T03:30:22.006Z,62.29
2018-07-24T03:32:50.080Z,62.70
2018-07-24T03:35:18.105Z,63.37
2018-07-24T03:37:46.144Z,62.67
2018-07-24T03:40:14.196Z,62.89
2018-07-24T03:42:42.225Z,62.35
2018-07-24T03:45:10.297Z,63.30
2018-07-24T03:47:38.325Z,62.99
2018-07-24T03:50:06.352Z,63.37
2018-07-24T03:52:34.389Z,63.17
2018-07-24T03:55:02.457Z,62.60
2018-07-24T03:57:30.474Z,62.98
2018-07-24T03:59:58.497Z,62.85
2018-07-24T04:02:26.597Z,63.13
2018-07-24T04:04:54.574Z,63.11
2018-07-24T04:07:22.609Z,63.04
2018-07-24T04:09:50.648Z,63.23
2018-07-24T04:12:18.677Z,63.05
2018-07-24T04:14:46.706Z,63.78
2018-07-24T04:17:14.732Z,63.16
2018-07-24T04:19:42.768Z,63.70
2018-07-24T04:22:10.812Z,63.35
2018-07-24T04:24:38.833Z,64.01
2018-07-24T04:27:06.944Z,63.12
2018-07-24T04:29:34.978Z,63.29
2018-07-24T04:32:03.025Z,63.60
2018-07-24T04:34:31.060Z,63.06
2018-07-24T04:36:59.089Z,63.42
2018-07-24T04:39:27.296Z,63.11
2018-07-24T04:41:55.341Z,64.01
2018-07-24T04:44:23.372Z,64.36
2018-07-24T04:46:51.406Z,64.43
2018-07-24T04:49:19.461Z,63.81
2018-07-24T04:51:47.505Z,64.38
2018-07-24T04:54:15.541Z,64.83
2018-07-24T04:56:43.597Z,64.05
2018-07-24T04:59:11.874Z,64.37
2018-07-24T05:01:39.916Z,64.91
2018-07-24T05:04:07.992Z,64.45
2018-07-24T05:06:36.049Z,64.63
2018-07-24T05:09:08.636Z,65.09
2018-07-24T05:11:36.664Z,65.42
2018-07-24T05:14:04.737Z,64.79
2018-07-24T05:16:32.782Z,65.13
2018-07-24T05:19:00.846Z,65.48
2018-07-24T05:21:28.864Z,65.45
2018-07-24T05:23:56.930Z,65.09
2018-07-24T05:26:24.973Z,65.54
2018-07-24T05:28:53.010Z,65.69
2018-07-24T05:31:21.097Z,64.66
2018-07-24T05:33:49.122Z,65.38
2018-07-24T05:36:17.147Z,64.73
2018-07-24T05:38:45.200Z,65.43
2018-07-24T05:41:13.234Z,64.06
2018-07-24T05:43:41.297Z,64.49
2018-07-24T05:46:09.331Z,63.65
2018-07-24T05:48:37.437Z,63.92
2018-07-24T05:51:05.446Z,63.88
2018-07-24T05:53:33.502Z,63.37
2018-07-24T05:56:01.668Z,63.49
2018-07-24T05:58:29.814Z,63.05
2018-07-24T06:00:57.873Z,63.29
2018-07-24T06:03:25.956Z,62.60
2018-07-24T06:05:55.012Z,62.58
2018-07-24T06:08:23.071Z,62.38
2018-07-24T06:10:51.106Z,62.63
2018-07-24T06:13:19.157Z,62.36
2018-07-24T06:15:47.216Z,61.92
2018-07-24T06:18:15.265Z,61.26
2018-07-24T06:20:43.305Z,60.65
2018-07-24T06:23:11.369Z,60.09
2018-07-24T06:25:39.401Z,60.12
2018-07-24T06:28:07.863Z,60.11
2018-07-24T06:30:35.890Z,59.41
2018-07-24T06:33:04.975Z,58.77
2018-07-24T06:35:33.000Z,58.46
2018-07-24T06:38:01.073Z,57.04
2018-07-24T06:40:29.097Z,57.47
2018-07-24T06:42:57.137Z,57.61
2018-07-24T06:45:25.185Z,55.98
2018-07-24T06:47:53.237Z,54.46
2018-07-24T06:50:21.276Z,54.05
2018-07-24T06:52:49.324Z,54.08
2018-07-24T06:55:17.420Z,53.54
2018-07-24T06:57:45.441Z,53.45
2018-07-24T07:00:13.475Z,51.19
2018-07-24T07:02:43.531Z,51.04
2018-07-24T07:05:11.650Z,50.30
2018-07-24T07:07:40.114Z,50.48
2018-07-24T07:10:08.248Z,49.38
2018-07-24T07:12:36.264Z,49.37
2018-07-24T07:15:05.621Z,48.62
2018-07-24T07:17:33.680Z,46.81
2018-07-24T07:20:01.729Z,46.45
2018-07-24T07:22:29.742Z,45.51
2018-07-24T07:24:57.797Z,45.87
2018-07-24T07:27:25.816Z,44.93
2018-07-24T07:29:53.857Z,43.78
2018-07-24T07:32:21.968Z,42.82
2018-07-24T07:34:49.993Z,43.58
2018-07-24T07:37:18.032Z,41.80
2018-07-24T07:39:46.065Z,42.48
2018-07-24T07:42:14.151Z,41.43
2018-07-24T07:44:42.221Z,40.44
2018-07-24T07:47:10.267Z,39.84
2018-07-24T07:49:38.281Z,39.20
2018-07-24T07:52:06.474Z,39.62
2018-07-24T07:54:34.517Z,38.93
2018-07-24T07:57:02.560Z,39.21
2018-07-24T07:59:30.582Z,38.12
2018-07-24T08:01:58.604Z,37.81
2018-07-24T08:04:26.674Z,38.41
2018-07-24T08:06:54.656Z,37.30
2018-07-24T08:09:22.701Z,36.45
2018-07-24T08:11:50.735Z,36.14
2018-07-24T08:14:18.769Z,34.58
2018-07-24T08:16:46.797Z,35.53
2018-07-24T08:19:14.866Z,34.51
2018-07-24T08:21:43.037Z,35.35
2018-07-24T08:24:11.178Z,34.82
2018-07-24T08:26:39.304Z,33.68
2018-07-24T08:29:07.457Z,33.09
2018-07-24T08:31:35.486Z,32.44
2018-07-24T08:34:03.573Z,31.39
2018-07-24T08:36:31.604Z,31.87
2018-07-24T08:38:59.634Z,30.57
2018-07-24T08:41:27.701Z,30.41
2018-07-24T08:43:55.712Z,30.00
2018-07-24T08:46:23.766Z,29.67
2018-07-24T08:48:51.796Z,30.46
2018-07-24T08:51:19.828Z,30.57
2018-07-24T08:53:48.110Z,29.79
2018-07-24T08:56:15.893Z,30.20
2018-07-24T08:58:43.919Z,30.19
2018-07-24T09:01:11.942Z,29.45
2018-07-24T09:03:40.009Z,29.61
2018-07-24T09:06:08.083Z,29.10
2018-07-24T09:08:36.108Z,29.80
2018-07-24T09:11:04.705Z,29.01
2018-07-24T09:13:32.732Z,28.25
2018-07-24T09:16:00.769Z,27.12
2018-07-24T09:18:28.789Z,27.89
2018-07-24T09:20:56.834Z,27.10
2018-07-24T09:23:25.001Z,26.98
2018-07-24T09:25:53.029Z,28.33
2018-07-24T09:28:21.054Z,28.63
2018-07-24T09:30:49.073Z,28.10
2018-07-24T09:33:17.084Z,27.25
2018-07-24T09:35:45.100Z,28.04
2018-07-24T09:38:13.125Z,27.90
2018-07-24T09:40:41.151Z,27.71
2018-07-24T09:43:09.174Z,26.82
2018-07-24T09:45:37.221Z,26.91
2018-07-24T09:48:05.257Z,27.85
2018-07-24T09:50:33.281Z,28.52
2018-07-24T09:53:01.329Z,26.87
2018-07-24T09:55:29.369Z,27.76
2018-07-24T09:57:57.396Z,27.75
2018-07-24T10:00:30.687Z,26.79
2018-07-24T10:02:58.736Z,27.09
2018-07-24T10:05:26.839Z,27.08
2018-07-24T10:07:54.825Z,27.14
2018-07-24T10:10:22.870Z,26.43
2018-07-24T10:12:51.039Z,27.59
2018-07-24T10:15:18.952Z,26.52
2018-07-24T10:17:47.024Z,25.60
2018-07-24T10:20:15.093Z,25.68
2018-07-24T10:22:43.192Z,26.25
2018-07-24T10:25:11.460Z,25.83
2018-07-24T10:27:46.231Z,26.40
2018-07-24T10:30:14.473Z,25.57
2018-07-24T10:32:42.580Z,25.54
2018-07-24T10:35:10.597Z,26.04
2018-07-24T10:37:38.669Z,25.47
2018-07-24T10:40:06.760Z,25.84
2018-07-24T10:42:34.838Z,26.29
2018-07-24T10:45:02.875Z,26.89
2018-07-24T10:47:30.946Z,27.25
2018-07-24T10:49:58.992Z,26.63
2018-07-24T10:52:27.020Z,27.17
2018-07-24T10:54:55.089Z,26.91
2018-07-24T10:57:23.121Z,25.90
2018-07-24T10:59:51.136Z,26.06
2018-07-24T11:02:19.181Z,25.88
2018-07-24T11:04:47.208Z,25.74
2018-07-24T11:07:15.241Z,26.07
2018-07-24T11:09:43.351Z,26.12
2018-07-24T11:12:11.381Z,25.76
2018-07-24T11:14:39.406Z,24.36
2018-07-24T11:17:07.533Z,24.90
2018-07-24T11:19:35.552Z,25.49
2018-07-24T11:22:03.780Z,24.46
2018-07-24T11:24:31.681Z,25.12
2018-07-24T11:27:02.509Z,25.24
2018-07-24T11:29:30.540Z,25.95
2018-07-24T11:31:58.622Z,25.76
2018-07-24T11:34:26.648Z,25.03
2018-07-24T11:36:54.687Z,25.49
2018-07-24T11:39:22.797Z,24.82
2018-07-24T11:41:50.928Z,25.31
2018-07-24T11:44:19.020Z,24.31
2018-07-24T11:46:47.048Z,24.69
2018-07-24T11:49:21.780Z,25.01
2018-07-24T11:51:49.844Z,25.26
2018-07-24T11:54:17.840Z,24.73
2018-07-24T11:56:45.877Z,24.78
2018-07-24T11:59:13.926Z,24.10
2018-07-24T12:01:42.960Z,24.54
2018-07-24T12:04:11.025Z,24.69
2018-07-24T12:06:39.107Z,24.16
2018-07-24T12:09:09.370Z,24.39
2018-07-24T12:11:37.455Z,24.65
2018-07-24T12:14:05.507Z,24.29
2018-07-24T12:16:33.564Z,24.66
2018-07-24T12:19:01.593Z,23.96
2018-07-24T12:21:29.758Z,23.72
2018-07-24T12:23:57.774Z,23.97
2018-07-24T12:26:25.797Z,23.36
2018-07-24T12:28:53.818Z,24.13
2018-07-24T12:31:21.848Z,23.88
2018-07-24T12:33:49.878Z,23.29
2018-07-24T12:36:17.965Z,23.55
2018-07-24T12:38:46.275Z,23.25
2018-07-24T12:41:14.317Z,24.74
2018-07-24T12:43:42.364Z,23.87
2018-07-24T12:46:10.472Z,24.64
2018-07-24T12:48:38.596Z,24.70
2018-07-24T12:51:06.737Z,24.09
2018-07-24T12:53:34.785Z,23.55
2018-07-24T12:56:02.822Z,24.36
2018-07-24T12:58:30.839Z,23.79
2018-07-24T13:00:58.876Z,23.57
2018-07-24T13:03:26.992Z,23.11
2018-07-24T13:05:54.952Z,24.04
2018-07-24T13:08:23.025Z,23.60
2018-07-24T13:10:51.074Z,22.33
2018-07-24T13:13:19.134Z,23.61
2018-07-24T13:15:47.160Z,22.93
2018-07-24T13:18:15.190Z,23.23
2018-07-24T13:20:43.389Z,22.91
2018-07-24T13:23:11.420Z,22.84
2018-07-24T13:25:39.457Z,22.56
2018-07-24T13:28:07.521Z,22.91
2018-07-24T13:30:35.560Z,23.67
2018-07-24T13:33:04.584Z,23.78
2018-07-24T13:35:32.633Z,23.61
2018-07-24T13:38:00.695Z,22.08
2018-07-24T13:40:28.793Z,23.12
2018-07-24T13:42:56.830Z,23.13
2018-07-24T13:45:24.857Z,22.77
2018-07-24T13:47:52.965Z,22.49
2018-07-24T13:50:21.056Z,22.77
2018-07-24T13:52:49.251Z,23.08
2018-07-24T13:55:17.390Z,23.08
2018-07-24T13:57:45.420Z,22.29
2018-07-24T14:00:13.445Z,22.79
2018-07-24T14:02:41.478Z,22.83
2018-07-24T14:05:09.512Z,23.12
2018-07-24T14:07:37.537Z,23.11
2018-07-24T14:10:05.996Z,23.13
2018-07-24T14:12:34.097Z,23.72
2018-07-24T14:15:02.163Z,22.64
2018-07-24T14:17:30.189Z,21.77
2018-07-24T14:19:58.229Z,22.57
2018-07-24T14:22:26.256Z,22.59
2018-07-24T14:24:54.312Z,22.52
2018-07-24T14:27:22.345Z,23.46
2018-07-24T14:29:50.777Z,22.31
2018-07-24T14:32:18.822Z,22.81
2018-07-24T14:34:46.861Z,22.86
2018-07-24T14:37:14.887Z,22.62
2018-07-24T14:39:43.082Z,23.43
2018-07-24T14:42:11.106Z,23.46
2018-07-24T14:44:39.365Z,22.90
2018-07-24T14:47:07.443Z,22.74
2018-07-24T14:49:35.476Z,23.22
2018-07-24T14:52:03.571Z,22.95
2018-07-24T14:54:31.609Z,22.78
2018-07-24T14:56:59.696Z,22.93
2018-07-24T14:59:27.876Z,23.29
2018-07-24T15:01:55.921Z,23.77
2018-07-24T15:04:23.965Z,23.94
2018-07-24T15:06:52.016Z,23.26
2018-07-24T15:09:20.045Z,22.49
2018-07-24T15:11:48.089Z,22.55
2018-07-24T15:14:16.147Z,23.16
2018-07-24T15:16:44.195Z,23.09
2018-07-24T15:19:12.223Z,23.25
2018-07-24T15:21:40.269Z,23.57
2018-07-24T15:24:08.302Z,23.26
2018-07-24T15:26:36.358Z,23.38
2018-07-24T15:29:05.152Z,22.59
2018-07-24T15:31:33.181Z,23.03
2018-07-24T15:34:01.329Z,22.75
2018-07-24T15:36:29.396Z,22.87
2018-07-24T15:38:57.427Z,22.32
2018-07-24T15:41:25.505Z,22.92
2018-07-24T15:43:53.564Z,22.71
2018-07-24T15:46:21.628Z,23.15
2018-07-24T15:48:49.661Z,22.25
2018-07-24T15:51:17.712Z,23.87
2018-07-24T15:53:45.778Z,23.11
2018-07-24T15:56:13.809Z,23.60
2018-07-24T15:58:41.869Z,23.05
2018-07-24T16:01:09.916Z,23.02
2018-07-24T16:03:38.117Z,22.63
2018-07-24T16:06:06.155Z,22.55
2018-07-24T16:08:34.581Z,23.41
2018-07-24T16:13:26.624Z,24.24
2018-07-24T16:15:54.714Z,23.62
2018-07-24T16:18:22.805Z,23.79
2018-07-24T16:20:50.877Z,23.59
2018-07-24T16:23:18.952Z,24.70
2018-07-24T16:25:46.977Z,24.96
2018-07-24T16:28:15.156Z,23.84
2018-07-24T16:30:43.225Z,23.97
2018-07-24T16:33:11.575Z,24.88
2018-07-24T16:35:39.706Z,24.98
2018-07-24T16:38:07.730Z,23.47
2018-07-24T16:40:35.807Z,23.82
2018-07-24T16:43:04.820Z,24.87
2018-07-24T16:45:32.881Z,24.17
2018-07-24T16:48:00.904Z,24.37
2018-07-24T16:50:28.934Z,24.99
2018-07-24T16:52:56.969Z,24.82
2018-07-24T16:55:24.985Z,24.25
2018-07-24T16:57:53.217Z,24.32
2018-07-24T17:00:21.206Z,25.07
2018-07-24T17:02:49.233Z,25.41
2018-07-24T17:05:17.244Z,25.63
2018-07-24T17:07:45.278Z,26.17
2018-07-24T17:10:13.329Z,25.63
2018-07-24T17:12:41.355Z,25.98
2018-07-24T17:15:09.401Z,25.62
2018-07-24T17:17:37.614Z,26.86
2018-07-24T17:20:05.667Z,25.75
2018-07-24T17:22:33.727Z,25.41
2018-07-24T17:25:01.898Z,25.09
2018-07-24T17:27:30.085Z,25.45
2018-07-24T17:29:58.188Z,26.29
2018-07-24T17:32:26.418Z,25.78
2018-07-24T17:34:54.449Z,26.01
2018-07-24T17:37:22.597Z,25.82
2018-07-24T17:39:50.645Z,25.40
2018-07-24T17:42:18.671Z,24.69
2018-07-24T17:44:46.708Z,25.57
2018-07-24T17:47:14.742Z,25.91
2018-07-24T17:49:42.780Z,26.50
2018-07-24T17:52:10.856Z,26.47
2018-07-24T17:54:38.886Z,27.87
2018-07-24T17:57:06.920Z,28.01
2018-07-24T17:59:34.950Z,27.97
2018-07-24T18:02:03.005Z,27.46
2018-07-24T18:04:31.042Z,27.15
2018-07-24T18:06:59.153Z,26.85
2018-07-24T18:09:27.200Z,27.75
2018-07-24T18:11:55.296Z,28.04
2018-07-24T18:14:23.331Z,28.26
2018-07-24T18:16:51.370Z,28.19
2018-07-24T18:19:19.418Z,28.15
2018-07-24T18:21:47.473Z,29.84
2018-07-24T18:24:15.924Z,30.92
2018-07-24T18:26:43.960Z,30.47
2018-07-24T18:29:11.987Z,31.02
2018-07-24T18:31:40.053Z,32.90
2018-07-24T18:34:08.077Z,31.71
2018-07-24T18:36:36.106Z,34.11
2018-07-24T18:39:07.620Z,35.27
2018-07-24T18:41:36.002Z,34.64
2018-07-24T18:44:04.705Z,35.26
2018-07-24T18:46:32.878Z,35.89
2018-07-24T18:49:01.159Z,36.38
2018-07-24T18:51:29.222Z,37.84
2018-07-24T18:53:57.254Z,36.36
2018-07-24T18:56:25.311Z,36.47
2018-07-24T18:58:53.444Z,37.24
2018-07-24T19:01:21.430Z,38.18
2018-07-24T19:03:49.489Z,37.91
2018-07-24T19:06:17.534Z,38.25
2018-07-24T19:08:45.582Z,38.41
2018-07-24T19:11:13.635Z,39.65
2018-07-24T19:13:41.676Z,40.39
2018-07-24T19:16:09.700Z,40.57
2018-07-24T19:18:37.737Z,41.17
2018-07-24T19:21:05.772Z,41.20
2018-07-24T19:23:33.825Z,42.02
2018-07-24T19:26:01.917Z,41.62
2018-07-24T19:28:29.962Z,41.91
2018-07-24T19:30:58.207Z,41.36
2018-07-24T19:33:26.140Z,41.45
2018-07-24T19:35:54.178Z,42.34
2018-07-24T19:38:22.382Z,42.48
2018-07-24T19:40:50.421Z,42.25
2018-07-24T19:43:18.622Z,42.29
2018-07-24T19:45:46.680Z,43.05
2018-07-24T19:48:15.013Z,42.95
2018-07-24T19:50:43.085Z,43.63
2018-07-24T19:53:11.124Z,43.53
2018-07-24T19:55:39.181Z,42.55
2018-07-24T19:58:07.252Z,43.71
2018-07-24T20:00:35.299Z,44.11
2018-07-24T20:03:03.358Z,43.26
2018-07-24T20:05:31.398Z,43.34
2018-07-24T20:07:59.466Z,42.60
2018-07-24T20:10:27.522Z,42.90
2018-07-24T20:12:55.555Z,43.07
2018-07-24T20:15:23.605Z,42.92
2018-07-24T20:17:51.671Z,42.25
2018-07-24T20:20:19.738Z,43.38
2018-07-24T20:22:47.851Z,43.74
2018-07-24T20:25:15.800Z,43.12
2018-07-24T20:27:43.852Z,44.42
2018-07-24T20:30:11.888Z,43.76
2018-07-24T20:32:39.934Z,44.16
2018-07-24T20:35:08.345Z,43.84
2018-07-24T20:37:36.305Z,44.60
2018-07-24T20:40:05.585Z,44.02
2018-07-24T20:42:33.657Z,44.49
2018-07-24T20:45:01.750Z,43.83
2018-07-24T20:47:29.824Z,44.37
2018-07-24T20:49:57.860Z,43.72
2018-07-24T20:52:25.949Z,44.19
2018-07-24T20:54:54.013Z,45.02
2018-07-24T20:57:22.041Z,44.72
2018-07-24T20:59:50.101Z,45.22
2018-07-24T21:02:18.158Z,45.48
2018-07-24T21:04:46.207Z,45.91
2018-07-24T21:07:14.248Z,45.52
2018-07-24T21:09:42.298Z,46.17
2018-07-24T21:12:10.360Z,45.39
2018-07-24T21:14:38.408Z,45.73
2018-07-24T21:17:06.512Z,45.76
2018-07-24T21:19:34.538Z,46.81
2018-07-24T21:22:02.626Z,46.73
2018-07-24T21:24:30.629Z,46.17
2018-07-24T21:26:58.646Z,46.68
2018-07-24T21:29:26.725Z,47.32
2018-07-24T21:31:54.766Z,46.94
2018-07-24T21:34:22.788Z,46.91
2018-07-24T21:36:50.840Z,46.34
2018-07-24T21:39:18.876Z,46.80
2018-07-24T21:41:46.911Z,47.06
2018-07-24T21:44:14.960Z,47.16
2018-07-24T21:46:43.000Z,47.03
2018-07-24T21:49:11.088Z,47.45
2018-07-24T21:51:39.081Z,47.07
2018-07-24T21:54:07.140Z,47.49
2018-07-24T21:56:35.197Z,47.16
2018-07-24T21:59:03.652Z,48.30
2018-07-24T22:01:31.677Z,48.35
2018-07-24T22:04:06.394Z,48.47
2018-07-24T22:06:34.514Z,48.35
2018-07-24T22:09:02.673Z,47.63
2018-07-24T22:11:30.605Z,48.79
2018-07-24T22:13:58.648Z,48.76
2018-07-24T22:16:26.733Z,48.45
2018-07-24T22:18:55.001Z,48.27
2018-07-24T22:21:23.072Z,49.35
2018-07-24T22:23:51.095Z,48.95
2018-07-24T22:26:19.140Z,48.65
2018-07-24T22:28:47.173Z,49.16
2018-07-24T22:31:15.213Z,49.87
2018-07-24T22:33:43.268Z,49.43
2018-07-24T22:36:11.304Z,49.07
2018-07-24T22:38:39.357Z,49.90
2018-07-24T22:41:07.390Z,49.92
2018-07-24T22:43:35.432Z,49.22
2018-07-24T22:46:03.468Z,49.32
2018-07-24T22:48:31.491Z,49.70
2018-07-24T22:50:59.513Z,49.72
2018-07-24T22:53:27.532Z,48.78
2018-07-24T22:55:57.397Z,49.78
2018-07-24T22:58:25.438Z,50.01
2018-07-24T23:00:53.906Z,50.10
2018-07-24T23:03:21.930Z,50.20
2018-07-24T23:05:50.200Z,50.36
2018-07-24T23:08:18.218Z,50.58
2018-07-24T23:10:46.501Z,49.86
2018-07-24T23:13:14.540Z,49.86
2018-07-24T23:15:42.553Z,50.55
2018-07-24T23:18:10.581Z,50.62
2018-07-24T23:20:38.648Z,49.87
2018-07-24T23:23:06.844Z,50.03
2018-07-24T23:25:34.886Z,50.23
2018-07-24T23:28:02.940Z,51.37
2018-07-24T23:30:30.994Z,51.44
2018-07-24T23:32:59.033Z,51.66
2018-07-24T23:35:27.072Z,51.67
2018-07-24T23:37:55.103Z,51.17
2018-07-24T23:40:23.144Z,51.88
2018-07-24T23:42:51.208Z,52.06
2018-07-24T23:45:19.240Z,52.17
2018-07-24T23:47:47.274Z,51.42
2018-07-24T23:50:15.306Z,51.37
2018-07-24T23:52:43.340Z,51.20
2018-07-24T23:55:11.376Z,51.15
2018-07-24T23:57:39.417Z,51.27
